Time;durP1;ratioP1;P1;durP2;ratioP2;P2;SDS_P1;SDS_P2;PMS_P1;PMS_P2;Temp;Humidity;BMP_temperature;BMP_pressure;BME280_temperature;BME280_humidity;BME280_pressure;Samples;Min_cycle;Max_cycle;Signal;HPM_P1;HPM_P2
2023/06/20 00:01:10;;;;;;;2.40;2.30;;;24.00;44.00;;;;;;5000883;28;20215;-73
2023/06/20 00:03:36;;;;;;;2.30;2.20;;;24.00;44.00;;;;;;5003565;28;20530;-73
2023/06/20 00:06:01;;;;;;;2.90;2.73;;;24.00;44.00;;;;;;5005826;28;20321;-73
2023/06/20 00:08:27;;;;;;;2.30;2.20;;;24.00;44.00;;;;;;5023934;28;20314;-72
2023/06/20 00:10:52;;;;;;;2.30;2.20;;;24.00;44.00;;;;;;5014576;28;20905;-72
2023/06/20 00:13:18;;;;;;;1.90;1.80;;;24.00;44.00;;;;;;5015316;28;20229;-72
2023/06/20 00:15:44;;;;;;;2.30;2.20;;;24.00;44.00;;;;;;5019122;28;20231;-73
2023/06/20 00:18:10;;;;;;;2.40;2.30;;;24.00;44.00;;;;;;5023137;28;20729;-72
2023/06/20 00:20:35;;;;;;;2.60;2.50;;;24.00;44.00;;;;;;5020481;28;20452;-73
2023/06/20 00:23:02;;;;;;;2.30;2.10;;;24.00;44.80;;;;;;5015106;28;20690;-72
2023/06/20 00:25:27;;;;;;;2.40;2.30;;;24.00;44.00;;;;;;5010340;28;20305;-72
2023/06/20 00:27:53;;;;;;;2.07;1.97;;;24.00;44.00;;;;;;5015847;28;21046;-73
2023/06/20 00:30:19;;;;;;;2.77;2.67;;;24.00;44.00;;;;;;5013858;28;20266;-73
2023/06/20 00:32:44;;;;;;;2.73;2.53;;;24.00;44.00;;;;;;5010731;28;20939;-73
2023/06/20 00:35:10;;;;;;;2.60;2.50;;;24.00;44.00;;;;;;5021277;28;20717;-73
2023/06/20 00:37:38;;;;;;;2.30;2.20;;;24.00;44.00;;;;;;5021604;28;20314;-72
2023/06/20 00:40:07;;;;;;;2.30;2.20;;;24.00;44.00;;;;;;5019987;28;20234;-72
2023/06/20 00:42:32;;;;;;;2.33;2.23;;;24.00;44.80;;;;;;5015628;28;20443;-72
2023/06/20 00:44:58;;;;;;;2.30;2.20;;;24.00;44.00;;;;;;5017646;28;20977;-72
2023/06/20 00:47:24;;;;;;;2.50;2.40;;;24.00;44.10;;;;;;5019623;28;20230;-73
2023/06/20 00:49:50;;;;;;;2.23;2.13;;;24.00;44.00;;;;;;5018134;28;20308;-73
2023/06/20 00:52:18;;;;;;;2.70;2.50;;;24.00;44.00;;;;;;5016481;28;20254;-72
2023/06/20 00:54:44;;;;;;;2.97;2.77;;;24.00;44.10;;;;;;5021868;28;20461;-72
2023/06/20 00:57:14;;;;;;;2.40;2.30;;;24.00;44.00;;;;;;5022330;28;20475;-72
2023/06/20 00:59:44;;;;;;;2.67;2.47;;;24.00;44.10;;;;;;5017360;28;23032;-73
2023/06/20 01:02:10;;;;;;;2.37;2.27;;;24.00;44.10;;;;;;5017386;28;20892;-72
2023/06/20 01:04:40;;;;;;;2.43;2.33;;;24.00;44.00;;;;;;5022084;28;20470;-72
2023/06/20 01:07:24;;;;;;;2.23;2.13;;;24.00;44.10;;;;;;5019510;28;20835;-73
2023/06/20 01:10:08;;;;;;;2.33;2.23;;;23.90;43.90;;;;;;5012713;28;20811;-72
2023/06/20 01:13:07;;;;;;;2.43;2.33;;;24.00;44.00;;;;;;5015178;28;20514;-73
2023/06/20 01:15:52;;;;;;;2.40;2.30;;;24.00;44.00;;;;;;5013985;28;20448;-73
2023/06/20 01:18:45;;;;;;;2.57;2.47;;;24.00;44.10;;;;;;5009341;28;20536;-72
2023/06/20 01:21:17;;;;;;;2.60;2.50;;;23.90;44.00;;;;;;5013363;28;20468;-72
2023/06/20 01:24:03;;;;;;;2.87;2.77;;;23.90;44.00;;;;;;5018795;28;20472;-73
2023/06/20 01:26:40;;;;;;;2.57;2.47;;;23.90;44.00;;;;;;5013624;28;21164;-72
2023/06/20 01:29:12;;;;;;;3.03;2.83;;;23.90;44.00;;;;;;5016958;28;20559;-72
2023/06/20 01:31:41;;;;;;;3.03;2.93;;;23.90;44.00;;;;;;5013307;28;20491;-72
2023/06/20 01:34:20;;;;;;;2.83;2.63;;;23.90;44.00;;;;;;5000861;28;20497;-73
2023/06/20 01:36:53;;;;;;;2.60;2.50;;;23.90;44.00;;;;;;5009293;28;21029;-72
2023/06/20 01:39:24;;;;;;;2.80;2.70;;;23.90;44.00;;;;;;5033871;28;21395;-73
2023/06/20 01:41:51;;;;;;;2.90;2.70;;;23.90;44.10;;;;;;5019141;28;21007;-73
2023/06/20 01:44:19;;;;;;;2.37;2.27;;;23.90;44.10;;;;;;5018998;28;20458;-73
2023/06/20 01:46:47;;;;;;;2.47;2.27;;;23.90;44.10;;;;;;5012993;28;20530;-73
2023/06/20 01:49:15;;;;;;;2.87;2.67;;;23.90;44.10;;;;;;5015891;28;20493;-73
2023/06/20 01:51:42;;;;;;;2.53;2.43;;;23.90;44.10;;;;;;5018151;28;20571;-73
2023/06/20 01:54:08;;;;;;;2.57;2.47;;;23.90;44.10;;;;;;5016788;28;20463;-73
2023/06/20 01:56:34;;;;;;;2.97;2.77;;;23.90;44.00;;;;;;5008773;28;20473;-73
2023/06/20 01:59:01;;;;;;;2.80;2.70;;;23.90;44.80;;;;;;5015620;28;20345;-73
2023/06/20 02:01:28;;;;;;;2.60;2.50;;;23.90;44.00;;;;;;5012648;28;20456;-73
2023/06/20 02:03:56;;;;;;;3.20;3.00;;;23.90;44.00;;;;;;5013407;28;20449;-73
2023/06/20 02:06:23;;;;;;;3.07;2.77;;;23.90;44.00;;;;;;5007045;28;20979;-73
2023/06/20 02:08:51;;;;;;;2.47;2.37;;;23.90;44.10;;;;;;5017420;28;20439;-73
2023/06/20 02:11:18;;;;;;;2.70;2.60;;;23.90;44.80;;;;;;5015886;28;20459;-73
2023/06/20 02:13:46;;;;;;;2.80;2.60;;;23.90;44.20;;;;;;5012398;28;20472;-73
2023/06/20 02:16:13;;;;;;;2.73;2.60;;;23.90;44.10;;;;;;5011483;28;20578;-73
2023/06/20 02:18:38;;;;;;;2.90;2.70;;;23.90;44.10;;;;;;5016817;28;20456;-72
2023/06/20 02:21:11;;;;;;;3.03;2.83;;;23.90;44.10;;;;;;5016250;28;20485;-73
2023/06/20 02:23:39;;;;;;;3.10;2.80;;;23.90;44.00;;;;;;5019420;28;20677;-73
2023/06/20 02:26:08;;;;;;;2.50;2.40;;;23.90;44.10;;;;;;5015290;28;20526;-73
2023/06/20 02:28:40;;;;;;;3.10;2.90;;;23.90;44.10;;;;;;5017951;28;20534;-72
2023/06/20 02:31:13;;;;;;;2.50;2.40;;;23.90;44.00;;;;;;5029181;28;20488;-72
2023/06/20 02:33:41;;;;;;;2.77;2.60;;;23.90;44.10;;;;;;5020240;28;20440;-72
2023/06/20 02:36:08;;;;;;;3.17;2.97;;;23.90;44.10;;;;;;5018852;28;20448;-72
2023/06/20 02:38:34;;;;;;;3.40;3.20;;;23.90;44.80;;;;;;5018120;28;21937;-73
2023/06/20 02:40:59;;;;;;;2.80;2.60;;;23.90;44.00;;;;;;5022975;28;20470;-73
2023/06/20 02:43:25;;;;;;;3.27;3.07;;;23.90;44.10;;;;;;5019659;28;20253;-73
2023/06/20 02:45:57;;;;;;;3.20;3.00;;;23.90;44.10;;;;;;5019125;28;20242;-72
2023/06/20 02:48:56;;;;;;;3.10;2.90;;;23.90;44.10;;;;;;5026154;28;20218;-73
2023/06/20 02:51:23;;;;;;;3.00;2.80;;;23.90;44.10;;;;;;5021282;28;21013;-73
2023/06/20 02:53:52;;;;;;;3.50;3.20;;;23.90;44.10;;;;;;5020763;28;20998;-73
2023/06/20 02:56:18;;;;;;;3.40;3.20;;;23.90;44.10;;;;;;5017342;28;20494;-72
2023/06/20 02:58:51;;;;;;;2.77;2.67;;;23.90;44.10;;;;;;5012555;28;21935;-73
2023/06/20 03:01:22;;;;;;;2.80;2.70;;;23.90;44.10;;;;;;5016113;28;20833;-72
2023/06/20 03:03:49;;;;;;;3.07;2.87;;;23.90;44.10;;;;;;5012539;28;21076;-72
2023/06/20 03:06:16;;;;;;;3.37;3.17;;;23.90;44.10;;;;;;5020185;28;20463;-73
2023/06/20 03:08:49;;;;;;;2.93;2.73;;;23.90;44.10;;;;;;5017766;28;20490;-73
2023/06/20 03:11:15;;;;;;;3.47;3.27;;;23.90;44.10;;;;;;5016669;28;20530;-72
2023/06/20 03:13:41;;;;;;;3.17;2.97;;;23.90;44.10;;;;;;5011011;28;21106;-72
2023/06/20 03:16:09;;;;;;;3.30;3.10;;;23.90;44.10;;;;;;4999436;28;20219;-72
2023/06/20 03:18:38;;;;;;;3.10;2.90;;;23.90;44.20;;;;;;5001755;28;20337;-73
2023/06/20 03:21:04;;;;;;;3.20;3.00;;;23.90;44.10;;;;;;4998267;28;20475;-73
2023/06/20 03:23:29;;;;;;;3.23;3.03;;;23.90;44.10;;;;;;5008362;28;20987;-73
2023/06/20 03:25:55;;;;;;;3.70;3.40;;;23.90;44.10;;;;;;5014307;28;20468;-73
2023/06/20 03:28:22;;;;;;;3.33;3.13;;;23.90;44.10;;;;;;5021023;28;20226;-73
2023/06/20 03:30:48;;;;;;;3.20;3.00;;;23.90;44.10;;;;;;5017016;28;20227;-72
2023/06/20 03:33:13;;;;;;;3.07;2.93;;;23.90;44.20;;;;;;5024248;28;21345;-73
2023/06/20 03:35:40;;;;;;;3.30;3.10;;;23.90;44.10;;;;;;5010581;28;20731;-73
2023/06/20 03:38:05;;;;;;;3.03;2.93;;;23.90;44.10;;;;;;5012508;28;20847;-72
2023/06/20 03:40:31;;;;;;;3.50;3.30;;;23.90;44.10;;;;;;5019265;28;20547;-72
2023/06/20 03:42:57;;;;;;;3.40;3.20;;;23.90;44.10;;;;;;5015806;28;20318;-72
2023/06/20 03:45:22;;;;;;;2.97;2.80;;;23.90;44.20;;;;;;5003195;28;20215;-73
2023/06/20 03:47:48;;;;;;;3.40;3.20;;;23.90;44.10;;;;;;5011358;28;20269;-73
2023/06/20 03:50:13;;;;;;;4.13;3.93;;;23.90;44.10;;;;;;5014228;28;20230;-72
2023/06/20 03:52:39;;;;;;;3.37;3.17;;;23.90;44.10;;;;;;5018084;28;20302;-72
2023/06/20 03:55:05;;;;;;;2.93;2.73;;;23.90;44.10;;;;;;5009580;28;20219;-72
2023/06/20 03:57:31;;;;;;;3.43;3.23;;;23.90;44.10;;;;;;5013825;28;20317;-72
2023/06/20 03:59:56;;;;;;;2.90;2.80;;;23.90;44.10;;;;;;5011669;28;20486;-72
2023/06/20 04:02:22;;;;;;;2.90;2.70;;;23.90;44.20;;;;;;5017902;28;20218;-71
2023/06/20 04:04:50;;;;;;;3.37;3.17;;;23.90;44.30;;;;;;5014784;28;20639;-72
2023/06/20 04:07:19;;;;;;;3.27;3.07;;;23.90;44.10;;;;;;5006362;28;21881;-72
2023/06/20 04:09:46;;;;;;;3.30;3.10;;;23.90;44.10;;;;;;5001026;28;20461;-72
2023/06/20 04:12:13;;;;;;;3.40;3.20;;;23.90;44.10;;;;;;5008047;28;20469;-72
2023/06/20 04:14:38;;;;;;;3.17;2.97;;;23.90;44.10;;;;;;5019450;28;20466;-73
2023/06/20 04:17:04;;;;;;;3.37;3.17;;;23.90;44.00;;;;;;5016776;28;20467;-70
2023/06/20 04:19:29;;;;;;;3.33;3.13;;;23.90;44.00;;;;;;5014135;28;20314;-71
2023/06/20 04:21:55;;;;;;;2.57;2.47;;;24.00;44.00;;;;;;5013434;28;20227;-70
2023/06/20 04:24:20;;;;;;;3.47;3.27;;;24.00;43.90;;;;;;5010904;28;20219;-69
2023/06/20 04:26:46;;;;;;;3.20;3.10;;;24.00;43.90;;;;;;5014017;28;20253;-69
2023/06/20 04:29:13;;;;;;;3.20;3.00;;;24.00;43.90;;;;;;5015504;28;20242;-68
2023/06/20 04:31:38;;;;;;;2.97;2.77;;;24.00;43.90;;;;;;5013634;28;20804;-70
2023/06/20 04:34:04;;;;;;;3.30;3.10;;;24.00;43.90;;;;;;5018962;28;20466;-69
2023/06/20 04:36:33;;;;;;;3.37;3.17;;;24.00;43.80;;;;;;5020219;28;20218;-70
2023/06/20 04:38:59;;;;;;;3.77;3.57;;;24.00;43.90;;;;;;5012160;28;20233;-70
2023/06/20 04:41:25;;;;;;;3.20;3.00;;;24.00;43.90;;;;;;5019185;28;20451;-69
2023/06/20 04:43:51;;;;;;;2.77;2.60;;;24.00;43.90;;;;;;5015075;28;20215;-69
2023/06/20 04:46:17;;;;;;;2.97;2.77;;;24.00;44.00;;;;;;5020262;28;20632;-68
2023/06/20 04:48:44;;;;;;;3.10;2.90;;;24.00;43.90;;;;;;5008453;28;20306;-67
2023/06/20 04:51:10;;;;;;;3.00;2.80;;;24.00;43.90;;;;;;5016369;28;20554;-67
2023/06/20 04:53:37;;;;;;;3.10;2.90;;;24.00;44.00;;;;;;5023186;28;20456;-68
2023/06/20 04:56:03;;;;;;;3.17;2.97;;;24.00;43.90;;;;;;5010734;28;20460;-68
2023/06/20 04:58:29;;;;;;;2.90;2.80;;;24.00;43.90;;;;;;5018655;28;20514;-70
2023/06/20 05:00:56;;;;;;;3.40;3.20;;;24.00;44.00;;;;;;5013250;28;20843;-73
2023/06/20 05:03:22;;;;;;;2.77;2.67;;;24.00;44.00;;;;;;5008394;28;20690;-66
2023/06/20 05:05:48;;;;;;;3.20;2.90;;;24.00;44.00;;;;;;5011043;28;22420;-67
2023/06/20 05:08:13;;;;;;;3.03;2.83;;;24.00;43.90;;;;;;5010538;28;20990;-68
2023/06/20 05:10:39;;;;;;;3.63;3.43;;;24.00;44.00;;;;;;5010744;28;20723;-68
2023/06/20 05:13:04;;;;;;;2.73;2.60;;;24.10;44.10;;;;;;5016311;28;20324;-69
2023/06/20 05:15:30;;;;;;;2.80;2.70;;;24.00;44.10;;;;;;5001997;28;20594;-69
2023/06/20 05:17:56;;;;;;;3.20;3.00;;;24.00;44.00;;;;;;5016804;28;20268;-72
2023/06/20 05:20:21;;;;;;;3.43;3.23;;;24.00;44.00;;;;;;5012824;28;20214;-69
2023/06/20 05:22:47;;;;;;;2.80;2.60;;;24.00;44.00;;;;;;5019594;28;20233;-69
2023/06/20 05:25:13;;;;;;;2.90;2.80;;;24.00;44.10;;;;;;5012162;28;20233;-69
2023/06/20 05:27:39;;;;;;;3.00;2.63;;;24.10;44.20;;;;;;5009848;28;20218;-70
2023/06/20 05:30:05;;;;;;;2.97;2.77;;;24.00;44.20;;;;;;5012763;28;20807;-70
2023/06/20 05:32:31;;;;;;;2.83;2.73;;;24.00;44.10;;;;;;5017497;28;20226;-70
2023/06/20 05:34:56;;;;;;;2.50;2.40;;;24.00;44.10;;;;;;5020864;28;20447;-70
2023/06/20 05:37:22;;;;;;;3.33;3.07;;;24.00;44.10;;;;;;5011803;28;20590;-70
2023/06/20 05:39:48;;;;;;;3.60;3.20;;;24.00;44.50;;;;;;5021919;28;20721;-71
2023/06/20 05:42:13;;;;;;;2.83;2.53;;;24.00;44.20;;;;;;5013006;28;23017;-71
2023/06/20 05:44:39;;;;;;;3.00;2.87;;;24.00;44.10;;;;;;5016020;28;20222;-70
2023/06/20 05:47:05;;;;;;;3.13;2.93;;;24.00;44.10;;;;;;4996401;28;20634;-71
2023/06/20 05:49:31;;;;;;;2.67;2.47;;;24.00;44.10;;;;;;5020558;28;20215;-70
2023/06/20 05:51:59;;;;;;;2.73;2.53;;;24.10;44.30;;;;;;5003803;28;20820;-71
2023/06/20 05:54:25;;;;;;;2.67;2.57;;;24.00;44.20;;;;;;5021093;28;20642;-71
2023/06/20 05:56:52;;;;;;;2.33;2.23;;;24.00;44.20;;;;;;5019539;28;20508;-70
2023/06/20 05:59:18;;;;;;;3.23;3.03;;;24.00;44.20;;;;;;5021461;28;20614;-70
2023/06/20 06:01:44;;;;;;;2.43;2.33;;;24.00;44.20;;;;;;5018580;28;20458;-71
2023/06/20 06:04:10;;;;;;;3.37;3.17;;;24.00;44.10;;;;;;5027998;28;20218;-70
2023/06/20 06:06:36;;;;;;;2.67;2.47;;;24.00;44.20;;;;;;5017160;28;20483;-70
2023/06/20 06:09:03;;;;;;;2.70;2.60;;;24.00;44.20;;;;;;5020526;28;20452;-70
2023/06/20 06:11:28;;;;;;;2.40;2.30;;;24.00;44.20;;;;;;5016105;28;20448;-70
2023/06/20 06:13:54;;;;;;;2.43;2.33;;;24.00;44.10;;;;;;5015208;28;20786;-72
2023/06/20 06:16:19;;;;;;;2.97;2.87;;;24.00;44.20;;;;;;5008240;28;20211;-70
2023/06/20 06:18:45;;;;;;;2.90;2.70;;;24.00;44.20;;;;;;5017256;28;20690;-70
2023/06/20 06:21:11;;;;;;;4.17;2.60;;;24.00;44.20;;;;;;5010073;28;20223;-70
2023/06/20 06:23:37;;;;;;;2.83;2.70;;;24.00;45.00;;;;;;5013511;28;20265;-70
2023/06/20 06:26:04;;;;;;;2.87;2.67;;;24.00;44.20;;;;;;5012458;28;20240;-70
2023/06/20 06:28:30;;;;;;;2.67;2.47;;;24.00;44.20;;;;;;5022223;28;20990;-70
2023/06/20 06:30:59;;;;;;;2.43;2.33;;;24.00;44.20;;;;;;5017747;28;20471;-71
2023/06/20 06:33:25;;;;;;;4.43;2.50;;;24.10;44.30;;;;;;5022832;28;20849;-71
2023/06/20 06:35:51;;;;;;;3.20;3.00;;;24.10;44.30;;;;;;5012219;28;20802;-70
2023/06/20 06:38:17;;;;;;;2.77;2.57;;;24.00;44.20;;;;;;5009197;28;21036;-70
2023/06/20 06:40:45;;;;;;;3.00;2.80;;;24.00;44.20;;;;;;5012567;28;20318;-70
2023/06/20 06:43:10;;;;;;;2.70;2.60;;;24.10;44.30;;;;;;5011137;28;20308;-70
2023/06/20 06:45:37;;;;;;;2.47;2.37;;;24.10;44.40;;;;;;5017300;28;21009;-70
2023/06/20 06:48:02;;;;;;;2.80;2.60;;;24.00;44.20;;;;;;5023013;28;20736;-70
2023/06/20 06:50:28;;;;;;;2.60;2.40;;;24.10;44.30;;;;;;5005760;28;20456;-70
2023/06/20 06:52:53;;;;;;;2.83;2.73;;;24.10;44.40;;;;;;5022306;28;20219;-70
2023/06/20 06:55:19;;;;;;;2.77;2.60;;;24.10;44.30;;;;;;5018259;28;20277;-70
2023/06/20 06:57:44;;;;;;;2.93;2.37;;;24.10;44.30;;;;;;5021868;28;20235;-70
2023/06/20 07:00:14;;;;;;;2.30;2.20;;;24.10;44.40;;;;;;5013108;28;20226;-70
2023/06/20 07:02:40;;;;;;;2.40;2.30;;;24.10;44.30;;;;;;5005400;28;20215;-70
2023/06/20 07:05:06;;;;;;;2.60;2.50;;;24.10;44.40;;;;;;5019704;28;20979;-70
2023/06/20 07:07:32;;;;;;;2.30;2.20;;;24.10;44.30;;;;;;5009270;28;20472;-70
2023/06/20 07:09:57;;;;;;;2.50;2.30;;;24.10;44.50;;;;;;5019384;28;20797;-71
2023/06/20 07:12:23;;;;;;;2.50;2.40;;;24.10;44.40;;;;;;5014740;28;20218;-70
2023/06/20 07:14:50;;;;;;;2.90;2.70;;;24.10;44.30;;;;;;5014526;28;20253;-70
2023/06/20 07:17:16;;;;;;;2.33;2.13;;;24.10;44.40;;;;;;5017497;28;20230;-70
2023/06/20 07:19:43;;;;;;;2.70;2.60;;;24.10;44.30;;;;;;5002858;28;20499;-70
2023/06/20 07:22:09;;;;;;;2.33;2.23;;;24.10;44.40;;;;;;5017192;28;20211;-70
2023/06/20 07:24:35;;;;;;;2.40;2.30;;;24.10;44.40;;;;;;5017599;28;20456;-70
2023/06/20 07:27:00;;;;;;;2.40;2.30;;;24.10;44.40;;;;;;5013749;28;20234;-69
2023/06/20 07:29:26;;;;;;;2.70;2.57;;;24.10;44.40;;;;;;5019537;28;20253;-70
2023/06/20 07:31:51;;;;;;;2.40;2.30;;;24.10;44.40;;;;;;5010676;28;20215;-70
2023/06/20 07:34:17;;;;;;;2.30;2.20;;;24.10;44.40;;;;;;5023611;28;21024;-70
2023/06/20 07:36:42;;;;;;;2.20;2.10;;;24.10;44.40;;;;;;5022169;28;20238;-70
2023/06/20 07:39:08;;;;;;;2.20;2.10;;;24.10;44.50;;;;;;5025223;28;20957;-70
2023/06/20 07:41:34;;;;;;;2.03;1.93;;;24.10;44.40;;;;;;5020881;28;20752;-70
2023/06/20 07:43:59;;;;;;;2.40;2.30;;;24.10;44.30;;;;;;5016958;28;20219;-70
2023/06/20 07:46:25;;;;;;;2.30;2.20;;;24.10;44.40;;;;;;5020753;28;20373;-72
2023/06/20 07:48:51;;;;;;;2.30;2.20;;;24.10;44.40;;;;;;5025967;28;20296;-70
2023/06/20 07:51:16;;;;;;;1.90;1.80;;;24.10;44.40;;;;;;5013639;28;20214;-70
2023/06/20 07:53:42;;;;;;;3.50;2.30;;;24.10;44.40;;;;;;5022200;28;20226;-70
2023/06/20 07:56:07;;;;;;;2.50;2.30;;;24.10;44.40;;;;;;5007521;28;20683;-70
2023/06/20 07:58:33;;;;;;;2.10;2.00;;;24.10;44.50;;;;;;5006008;28;20221;-70
2023/06/20 08:01:00;;;;;;;2.10;2.00;;;24.10;44.40;;;;;;5022510;28;20214;-69
2023/06/20 08:03:26;;;;;;;2.37;2.27;;;24.10;44.50;;;;;;5019908;28;20238;-70
2023/06/20 08:05:52;;;;;;;2.30;2.20;;;24.10;44.50;;;;;;5010999;28;21008;-70
2023/06/20 08:08:17;;;;;;;2.30;2.20;;;24.10;44.50;;;;;;5023114;28;20376;-70
2023/06/20 08:10:43;;;;;;;2.10;2.00;;;24.10;44.50;;;;;;5018095;28;21000;-70
2023/06/20 08:13:09;;;;;;;2.30;2.20;;;24.10;44.50;;;;;;5028123;28;20229;-70
2023/06/20 08:15:34;;;;;;;2.10;1.93;;;24.20;44.50;;;;;;5017814;28;20302;-70
2023/06/20 08:18:00;;;;;;;2.20;2.10;;;24.10;44.40;;;;;;5004814;28;20239;-70
2023/06/20 08:20:25;;;;;;;1.97;1.87;;;24.10;44.50;;;;;;5010604;28;20222;-69
2023/06/20 08:22:51;;;;;;;2.30;2.20;;;24.10;44.50;;;;;;5018425;28;20583;-70
2023/06/20 08:25:16;;;;;;;2.27;2.17;;;24.20;44.50;;;;;;5023335;28;20238;-70
2023/06/20 08:27:42;;;;;;;2.40;2.30;;;24.20;44.50;;;;;;5018149;28;20670;-70
2023/06/20 08:30:08;;;;;;;2.00;1.90;;;24.10;44.50;;;;;;5022313;28;20225;-70
2023/06/20 08:32:33;;;;;;;2.30;2.20;;;24.20;44.50;;;;;;5009523;28;20219;-70
2023/06/20 08:34:59;;;;;;;2.27;2.17;;;24.10;44.40;;;;;;5008758;28;20589;-70
2023/06/20 08:37:24;;;;;;;2.27;2.17;;;24.20;44.50;;;;;;5017452;28;20231;-70
2023/06/20 08:39:50;;;;;;;2.37;2.27;;;24.20;44.50;;;;;;5020957;28;20366;-70
2023/06/20 08:42:15;;;;;;;2.23;2.13;;;24.20;44.60;;;;;;5000927;28;20339;-70
2023/06/20 08:44:41;;;;;;;2.30;2.20;;;24.20;44.60;;;;;;5015125;28;20219;-70
2023/06/20 08:47:07;;;;;;;1.77;1.67;;;24.10;44.50;;;;;;5019975;28;20270;-70
2023/06/20 08:49:33;;;;;;;2.20;2.10;;;24.20;44.50;;;;;;5016124;28;20214;-70
2023/06/20 08:52:06;;;;;;;2.60;2.50;;;24.20;44.50;;;;;;5018272;28;20309;-70
2023/06/20 08:54:37;;;;;;;2.33;2.17;;;24.20;44.50;;;;;;5016386;28;20222;-70
2023/06/20 08:57:06;;;;;;;2.60;2.50;;;24.20;44.50;;;;;;5012715;28;20467;-70
2023/06/20 08:59:33;;;;;;;2.20;2.10;;;24.20;44.50;;;;;;4997175;28;20456;-70
2023/06/20 09:01:58;;;;;;;2.20;2.10;;;24.20;44.50;;;;;;5019150;28;20483;-70
2023/06/20 09:04:27;;;;;;;1.93;1.83;;;24.20;44.50;;;;;;5020958;28;20597;-70
2023/06/20 09:06:53;;;;;;;2.00;1.90;;;24.20;44.50;;;;;;5021001;28;20592;-70
2023/06/20 09:09:18;;;;;;;2.50;2.40;;;24.20;44.60;;;;;;5013461;28;20452;-70
2023/06/20 09:11:49;;;;;;;2.50;2.40;;;24.20;44.50;;;;;;5017133;28;20229;-70
2023/06/20 09:14:15;;;;;;;2.43;2.33;;;24.20;44.60;;;;;;4999986;28;20223;-70
2023/06/20 09:16:42;;;;;;;2.27;2.17;;;24.20;44.50;;;;;;5016262;28;20456;-69
2023/06/20 09:19:08;;;;;;;2.20;2.10;;;24.20;44.50;;;;;;5007813;28;20453;-70
2023/06/20 09:21:36;;;;;;;2.00;1.90;;;24.30;44.60;;;;;;5012854;28;20452;-70
2023/06/20 09:24:04;;;;;;;2.13;2.03;;;24.20;44.50;;;;;;5006914;28;20453;-69
2023/06/20 09:26:31;;;;;;;2.10;2.00;;;24.20;44.50;;;;;;5021242;28;20456;-72
2023/06/20 09:29:09;;;;;;;2.47;2.37;;;24.20;44.50;;;;;;5023634;28;20530;-70
2023/06/20 09:31:50;;;;;;;2.03;1.93;;;24.20;44.50;;;;;;5015562;28;22108;-70
2023/06/20 09:34:18;;;;;;;2.60;2.40;;;24.20;44.50;;;;;;5015012;28;20456;-70
2023/06/20 09:36:44;;;;;;;2.60;2.50;;;24.20;44.50;;;;;;5014457;28;20451;-70
2023/06/20 09:39:20;;;;;;;2.00;1.90;;;24.20;44.60;;;;;;5020877;28;20535;-69
2023/06/20 09:41:51;;;;;;;1.97;1.87;;;24.20;44.50;;;;;;5021061;28;20981;-69
2023/06/20 09:44:20;;;;;;;2.20;2.10;;;24.20;44.50;;;;;;5012699;28;20962;-70
2023/06/20 09:46:46;;;;;;;2.20;2.10;;;24.30;44.60;;;;;;5009800;28;20454;-70
2023/06/20 09:49:14;;;;;;;2.43;2.33;;;24.20;44.50;;;;;;5016932;28;20534;-70
2023/06/20 09:51:48;;;;;;;2.50;2.40;;;24.30;44.60;;;;;;5020332;28;20456;-70
2023/06/20 09:54:19;;;;;;;2.40;2.30;;;24.30;44.60;;;;;;5015178;28;20587;-69
2023/06/20 09:56:50;;;;;;;2.27;2.17;;;24.30;44.60;;;;;;5001583;28;20443;-70
2023/06/20 09:59:17;;;;;;;2.23;2.13;;;24.30;44.60;;;;;;5002504;28;20830;-70
2023/06/20 10:01:43;;;;;;;2.53;2.43;;;24.30;44.60;;;;;;5020544;28;20946;-70
2023/06/20 10:04:10;;;;;;;6.20;2.20;;;24.30;44.60;;;;;;5020594;28;20677;-70
2023/06/20 10:06:39;;;;;;;2.43;2.33;;;24.30;44.70;;;;;;5019027;28;20223;-70
2023/06/20 10:09:08;;;;;;;2.37;2.27;;;24.30;44.60;;;;;;5018788;28;20463;-70
2023/06/20 10:11:37;;;;;;;2.10;2.00;;;24.30;44.60;;;;;;5010917;28;20464;-70
2023/06/20 10:14:04;;;;;;;2.13;2.03;;;24.30;44.60;;;;;;5014089;28;20452;-70
2023/06/20 10:16:30;;;;;;;2.40;2.30;;;24.30;44.60;;;;;;5019380;28;20939;-70
2023/06/20 10:18:56;;;;;;;2.63;2.27;;;24.30;44.60;;;;;;5022828;28;20468;-70
2023/06/20 10:21:57;;;;;;;2.37;2.27;;;24.30;44.70;;;;;;5016084;28;21834;-70
2023/06/20 10:24:30;;;;;;;2.30;2.20;;;24.30;44.60;;;;;;5021439;28;20983;-70
2023/06/20 10:27:00;;;;;;;2.17;2.07;;;24.30;45.40;;;;;;5015698;28;20477;-70
2023/06/20 10:29:26;;;;;;;2.50;2.40;;;24.30;44.60;;;;;;5011576;28;20460;-69
2023/06/20 10:31:56;;;;;;;2.30;2.20;;;24.30;44.60;;;;;;5013567;28;20461;-70
2023/06/20 10:34:29;;;;;;;2.17;2.07;;;24.30;44.70;;;;;;5021942;28;20448;-70
2023/06/20 10:37:09;;;;;;;2.37;2.20;;;24.30;44.60;;;;;;5015426;28;20503;-71
2023/06/20 10:39:34;;;;;;;2.10;2.00;;;24.30;44.60;;;;;;5006192;28;20464;-70
2023/06/20 10:42:06;;;;;;;2.17;2.07;;;24.30;44.60;;;;;;5009983;28;20492;-70
2023/06/20 10:44:31;;;;;;;2.30;2.20;;;24.30;44.70;;;;;;5020268;28;20235;-70
2023/06/20 10:46:57;;;;;;;2.43;2.33;;;24.30;44.60;;;;;;5020715;28;20480;-70
2023/06/20 10:49:23;;;;;;;2.50;2.40;;;24.30;44.70;;;;;;5023459;28;20250;-70
2023/06/20 10:51:57;;;;;;;2.60;2.50;;;24.30;44.60;;;;;;5011472;28;20741;-69
2023/06/20 10:54:31;;;;;;;2.50;2.40;;;24.30;44.60;;;;;;5008365;28;20811;-69
2023/06/20 10:56:56;;;;;;;2.10;2.00;;;24.30;44.60;;;;;;5020104;28;20477;-70
2023/06/20 10:59:22;;;;;;;2.37;2.27;;;24.30;44.60;;;;;;5012118;28;20565;-69
2023/06/20 11:01:48;;;;;;;2.23;2.13;;;24.30;44.60;;;;;;5021314;28;20854;-70
2023/06/20 11:04:15;;;;;;;2.20;2.10;;;24.30;44.60;;;;;;5010858;28;20636;-70
2023/06/20 11:06:41;;;;;;;2.50;2.40;;;24.30;44.60;;;;;;5023649;28;20246;-69
2023/06/20 11:09:21;;;;;;;2.43;2.33;;;24.30;44.60;;;;;;5021098;28;20810;-70
2023/06/20 11:11:47;;;;;;;2.63;2.53;;;24.30;44.50;;;;;;5018455;28;20464;-69
2023/06/20 11:14:19;;;;;;;2.00;1.90;;;24.30;44.60;;;;;;5021735;28;20575;-69
2023/06/20 11:16:46;;;;;;;2.50;2.40;;;24.30;44.60;;;;;;5011545;28;23741;-70
2023/06/20 11:19:11;;;;;;;2.20;2.10;;;24.30;44.60;;;;;;5005115;28;20441;-70
2023/06/20 11:21:37;;;;;;;2.40;2.30;;;24.40;44.70;;;;;;5017192;28;21031;-69
2023/06/20 11:24:04;;;;;;;2.27;2.17;;;24.40;44.70;;;;;;5024016;28;20952;-69
2023/06/20 11:26:34;;;;;;;2.40;2.30;;;24.30;44.60;;;;;;5008646;28;20245;-70
2023/06/20 11:29:04;;;;;;;3.03;2.83;;;24.40;44.70;;;;;;5025087;28;20459;-70
2023/06/20 11:31:30;;;;;;;2.50;2.40;;;24.40;44.70;;;;;;5018544;28;21014;-70
2023/06/20 11:34:05;;;;;;;2.43;2.33;;;24.40;44.70;;;;;;5007210;28;20451;-70
2023/06/20 11:36:33;;;;;;;2.23;2.13;;;24.40;44.60;;;;;;5006308;28;20511;-70
2023/06/20 11:39:00;;;;;;;2.53;2.43;;;24.40;44.60;;;;;;5003822;28;20461;-70
2023/06/20 11:41:32;;;;;;;2.70;2.60;;;24.40;44.60;;;;;;5010363;28;20471;-70
2023/06/20 11:43:58;;;;;;;2.10;2.00;;;24.40;44.60;;;;;;5021337;28;20464;-70
2023/06/20 11:46:24;;;;;;;2.30;2.20;;;24.40;44.70;;;;;;5011028;28;20459;-70
2023/06/20 11:48:52;;;;;;;2.77;2.57;;;24.40;44.60;;;;;;5008830;28;20932;-70
2023/06/20 11:51:20;;;;;;;2.40;2.30;;;24.40;44.70;;;;;;5012182;28;20457;-70
2023/06/20 11:53:47;;;;;;;2.70;2.60;;;24.40;44.60;;;;;;5021520;28;20517;-70
2023/06/20 11:56:14;;;;;;;2.13;2.03;;;24.40;44.60;;;;;;5011713;28;20474;-70
2023/06/20 11:58:40;;;;;;;2.50;2.40;;;24.40;44.70;;;;;;5019508;28;21063;-70
2023/06/20 12:01:13;;;;;;;2.40;2.30;;;24.40;44.60;;;;;;5019517;28;20475;-70
2023/06/20 12:03:44;;;;;;;2.10;2.00;;;24.40;44.70;;;;;;5015146;28;20730;-70
2023/06/20 12:06:27;;;;;;;2.40;2.20;;;24.40;44.70;;;;;;5006143;28;20508;-70
2023/06/20 12:08:58;;;;;;;2.00;1.90;;;24.40;44.60;;;;;;5019942;28;20556;-70
2023/06/20 12:11:24;;;;;;;2.10;2.00;;;24.40;44.70;;;;;;5007482;28;20471;-70
2023/06/20 12:13:52;;;;;;;2.00;1.90;;;24.40;44.70;;;;;;5023052;28;20466;-70
2023/06/20 12:16:21;;;;;;;2.00;1.90;;;24.40;44.70;;;;;;4998988;28;20447;-70
2023/06/20 12:18:48;;;;;;;2.60;2.50;;;24.40;44.70;;;;;;5017506;28;20474;-71
2023/06/20 12:21:13;;;;;;;2.20;2.10;;;24.40;44.70;;;;;;5013034;28;20468;-70
2023/06/20 12:23:40;;;;;;;2.50;2.40;;;24.40;44.60;;;;;;4999603;28;20486;-70
2023/06/20 12:26:06;;;;;;;2.67;2.50;;;24.40;44.70;;;;;;5019403;28;20289;-70
2023/06/20 12:28:32;;;;;;;2.43;2.33;;;24.40;44.70;;;;;;5010789;28;20483;-70
2023/06/20 12:30:59;;;;;;;2.30;2.20;;;24.40;44.70;;;;;;5000449;28;21289;-70
2023/06/20 12:33:27;;;;;;;2.30;2.20;;;24.40;44.70;;;;;;5005339;28;20441;-73
2023/06/20 12:35:53;;;;;;;2.20;2.10;;;24.40;44.70;;;;;;4999624;28;21026;-70
2023/06/20 12:38:18;;;;;;;2.37;2.27;;;24.40;44.70;;;;;;4997709;28;20540;-70
2023/06/20 12:40:44;;;;;;;2.27;2.17;;;24.40;44.70;;;;;;5000390;28;20314;-70
2023/06/20 12:43:10;;;;;;;2.40;2.30;;;24.40;44.70;;;;;;5003591;28;20221;-70
2023/06/20 12:45:36;;;;;;;2.33;2.23;;;24.40;44.70;;;;;;5017129;28;20246;-70
2023/06/20 12:48:02;;;;;;;2.30;2.20;;;24.40;44.70;;;;;;5019569;28;21200;-70
2023/06/20 12:50:28;;;;;;;2.00;1.90;;;24.40;44.70;;;;;;5016609;28;20230;-70